Dades meteomassalio
Diari Summary for Marc 31, 2017 Units:  Metric    English   Both
« Previous Day
Next Day »
Diari Semanal Mensual Anual Personalitzat
  Maxima: Minima: Mijana:
Temperatura: -17.8 °C -14.1 °C -10.4 °C
Rosada: -17.8 °C -16 °C -13.7 °C
Humitat: Humidity % 41 % 69 %
Velocitat del vent: 0 km/h 0 km/h 7.2 km/h
Racha vent: 0 km/h - -
Vent:- - ESE
Pressio: 0 hPa 34384.8 hPa -
Pluja: 284.48 mm    
Historical Graphs
 
 
Tabular Data for Marc 31, 2017
Time Temperature Dew Point Pressure Wind Wind Speed Wind Gust Humidity Rainfall Rate (Hourly) solar Conditions
-17.8 °C -17.8 °C 0 hPa Calm     Humidity % 0 mm SolarRadiationWatts/m^2 W/m2 Conditions
00:04 -9.7 °C -15.6 °C 34611.7 hPa Calm     49 % 0 mm 0.0 W/m2 CLR
00:09 -9.8 °C -15.7 °C 34611.7 hPa Calm     49 % 0 mm 0.0 W/m2 CLR
00:14 -9.8 °C -15.8 °C 34611.7 hPa Calm     48 % 0 mm 0.0 W/m2 CLR
00:19 -9.9 °C -15.4 °C 34611.7 hPa Calm     51 % 0 mm 0.0 W/m2 CLR
00:24 -10.1 °C -15.7 °C 34611.7 hPa Calm     51 % 0 mm 0.0 W/m2 CLR
00:29 -10.2 °C -15.7 °C 34611.7 hPa Calm     51 % 0 mm 0.0 W/m2 CLR
00:34 -10.2 °C -15.8 °C 34611.7 hPa Calm     50 % 0 mm 0.0 W/m2 CLR
00:39 -10.2 °C -15.4 °C 34611.7 hPa Calm     53 % 0 mm 0.0 W/m2 CLR
00:44 -10.4 °C -15.5 °C 34611.7 hPa Calm     54 % 0 mm 0.0 W/m2 CLR
00:49 -10.6 °C -15.5 °C 34611.7 hPa Calm     55 % 0 mm 0.0 W/m2 CLR
00:54 -10.7 °C -15.8 °C 34611.7 hPa Calm     54 % 0 mm 0.0 W/m2 CLR
00:59 -10.7 °C -15.9 °C 34611.7 hPa Calm     53 % 0 mm 0.0 W/m2 CLR
01:04 -10.6 °C -15.9 °C 34611.7 hPa Calm     52 % 0 mm 0.0 W/m2 CLR
01:09 -10.7 °C -15.7 °C 34611.7 hPa Calm     54 % 0 mm 0.0 W/m2 CLR
01:14 -10.7 °C -15.7 °C 34611.7 hPa Calm     54 % 0 mm 0.0 W/m2 CLR
01:19 -10.8 °C -15.7 °C 34611.7 hPa Calm     55 % 0 mm 0.0 W/m2 CLR
01:24 -10.8 °C -15.6 °C 34611.7 hPa Calm     56 % 0 mm 0.0 W/m2 CLR
01:29 -10.8 °C -15.5 °C 34611.7 hPa Calm     56 % 0 mm 0.0 W/m2 CLR
01:34 -10.9 °C -15.7 °C 34611.7 hPa Calm     56 % 0 mm 0.0 W/m2 CLR
01:39 -11.2 °C -15.7 °C 34611.7 hPa Calm     58 % 0 mm 0.0 W/m2 CLR
01:44 -11.3 °C -16 °C 34611.7 hPa Calm     56 % 0 mm 0.0 W/m2 CLR
01:49 -11.1 °C -15.7 °C 34611.7 hPa Calm     57 % 0 mm 0.0 W/m2 CLR
01:54 -11.2 °C -15.5 °C 34611.7 hPa Calm     59 % 0 mm 0.0 W/m2 CLR
01:59 -11.4 °C -15.5 °C 34601.5 hPa Calm     61 % 0 mm 0.0 W/m2 CLR
02:04 -11.7 °C -15.4 °C 34601.5 hPa Calm     63 % 0 mm 0.0 W/m2 CLR
02:09 -11.8 °C -15.6 °C 34601.5 hPa Calm     63 % 0 mm 0.0 W/m2 CLR
02:14 -11.9 °C -15.4 °C 34601.5 hPa Calm     65 % 0 mm 0.0 W/m2 CLR
02:19 -12.2 °C -15.4 °C 34601.5 hPa Calm     67 % 0 mm 0.0 W/m2 CLR
02:24 -12.3 °C -15.4 °C 34601.5 hPa Calm     68 % 0 mm 0.0 W/m2 CLR
02:29 -12.3 °C -15.4 °C 34601.5 hPa Calm     69 % 0 mm 0.0 W/m2 CLR
02:34 -12.4 °C -15.3 °C 34601.5 hPa Calm     70 % 0 mm 0.0 W/m2 CLR
02:39 -12.5 °C -15.3 °C 34601.5 hPa Calm     71 % 0 mm 0.0 W/m2 CLR
02:44 -12.6 °C -15.4 °C 34601.5 hPa Calm     70 % 0 mm 0.0 W/m2 CLR
02:49 -12.6 °C -15.6 °C 34591.4 hPa Calm     69 % 0 mm 0.0 W/m2 CLR
02:54 -12.6 °C -15.5 °C 34601.5 hPa Calm     69 % 0 mm 0.0 W/m2 CLR
02:59 -12.6 °C -15.5 °C 34601.5 hPa Calm     69 % 0 mm 0.0 W/m2 CLR
03:04 -12.6 °C -15.4 °C 34601.5 hPa Calm     70 % 0 mm 0.0 W/m2 CLR
03:09 -12.6 °C -15.3 °C 34601.5 hPa Calm     71 % 0 mm 0.0 W/m2 CLR
03:14 -12.6 °C -15.5 °C 34601.5 hPa Calm     70 % 0 mm 0.0 W/m2 CLR
03:19 -12.6 °C -15.4 °C 34601.5 hPa Calm     71 % 0 mm 0.0 W/m2 CLR
03:24 -12.6 °C -15.4 °C 34601.5 hPa Calm     71 % 0 mm 0.0 W/m2 CLR
03:25 -12.6 °C -15.2 °C 34601.5 hPa Calm     72 % 0 mm 0.0 W/m2 CLR
03:30 -12.6 °C -15.4 °C 34601.5 hPa Calm     71 % 0 mm 0.0 W/m2 CLR
03:35 -12.7 °C -15.5 °C 34601.5 hPa Calm     70 % 0 mm 0.0 W/m2 CLR
03:40 -12.7 °C -15.3 °C 34601.5 hPa Calm     73 % 0 mm 0.0 W/m2 CLR
03:45 -12.8 °C -15.3 °C 34601.5 hPa Calm     73 % 0 mm 0.0 W/m2 CLR
03:50 -12.8 °C -15.4 °C 34601.5 hPa Calm     72 % 0 mm 0.0 W/m2 CLR
03:55 -12.8 °C -15.3 °C 34601.5 hPa Calm     73 % 0 mm 0.0 W/m2 CLR
04:00 -12.9 °C -15.2 °C 34601.5 hPa Calm     75 % 0 mm 0.0 W/m2 CLR
04:05 -12.9 °C -15.3 °C 34591.4 hPa Calm     74 % 0 mm 0.0 W/m2 CLR
04:10 -12.9 °C -15.2 °C 34591.4 hPa Calm     75 % 0 mm 0.0 W/m2 CLR
04:15 -12.9 °C -15.2 °C 34591.4 hPa Calm     76 % 0 mm 0.0 W/m2 CLR
04:20 -13 °C -15.1 °C 34591.4 hPa Calm     77 % 0 mm 0.0 W/m2 CLR
04:25 -13.1 °C -15.2 °C 34591.4 hPa Calm     77 % 0 mm 0.0 W/m2 CLR
04:30 -13.1 °C -15.2 °C 34591.4 hPa Calm     77 % 0 mm 0.0 W/m2 CLR
04:35 -13.1 °C -15.2 °C 34591.4 hPa Calm     77 % 0 mm 0.0 W/m2 CLR
04:40 -13.1 °C -15.2 °C 34591.4 hPa Calm     77 % 0 mm 0.0 W/m2 CLR
04:45 -13.2 °C -15.2 °C 34591.4 hPa Calm     78 % 0 mm 0.0 W/m2 CLR
04:50 -13.2 °C -15.2 °C 34591.4 hPa Calm     78 % 0 mm 0.0 W/m2 CLR
04:55 -13.2 °C -15.3 °C 34591.4 hPa Calm     77 % 0 mm 0.0 W/m2 CLR
05:00 -13.2 °C -15.2 °C 34591.4 hPa Calm     78 % 0 mm 0.0 W/m2 CLR
05:05 -13.2 °C -15.2 °C 34577.8 hPa Calm     78 % 0 mm 0.0 W/m2 CLR
05:10 -13.3 °C -15.3 °C 34577.8 hPa Calm     78 % 0 mm 0.0 W/m2 CLR
05:15 -13.4 °C -15.4 °C 34591.4 hPa Calm     78 % 0 mm 0.0 W/m2 CLR
05:20 -13.4 °C -15.4 °C 34591.4 hPa Calm     78 % 0 mm 0.0 W/m2 CLR
05:25 -13.3 °C -15.3 °C 34591.4 hPa SSW 6 km/h   78 % 0 mm 0.0 W/m2 CLR
05:30 -13.3 °C -15.4 °C 34591.4 hPa Calm     77 % 0 mm 0.0 W/m2 CLR
05:35 -13.3 °C -15.4 °C 34591.4 hPa Calm     77 % 0 mm 0.0 W/m2 CLR
05:40 -13.3 °C -15.4 °C 34591.4 hPa Calm     77 % 0 mm 0.0 W/m2 CLR
05:45 -13.3 °C -15.4 °C 34591.4 hPa Calm     77 % 0 mm 0.0 W/m2 CLR
05:50 -13.4 °C -15.4 °C 34591.4 hPa Calm     78 % 0 mm 0.0 W/m2 CLR
05:55 -13.5 °C -15.4 °C 34591.4 hPa Calm     79 % 0 mm 0.0 W/m2 CLR
06:00 -13.6 °C -15.4 °C 34591.4 hPa Calm     79 % 0 mm 0.0 W/m2 CLR
06:05 -13.6 °C -15.4 °C 34591.4 hPa Calm     79 % 0 mm 0.0 W/m2 CLR
06:10 -13.6 °C -15.4 °C 34591.4 hPa Calm     79 % 0 mm 0.0 W/m2 CLR
06:15 -13.6 °C -15.5 °C 34591.4 hPa Calm     79 % 0 mm 0.0 W/m2 CLR
06:20 -13.7 °C -15.6 °C 34591.4 hPa Calm     79 % 0 mm 0.0 W/m2 CLR
06:25 -13.7 °C -15.5 °C 34591.4 hPa Calm     80 % 0 mm 0.0 W/m2 CLR
06:30 -13.8 °C -15.6 °C 34591.4 hPa Calm     80 % 0 mm 0.0 W/m2 CLR
06:35 -13.8 °C -15.6 °C 34591.4 hPa Calm     80 % 0 mm 0.0 W/m2 CLR
06:40 -13.7 °C -15.5 °C 34591.4 hPa Calm     80 % 0 mm 0.0 W/m2 CLR
06:45 -13.8 °C -15.6 °C 34591.4 hPa Calm     80 % 0 mm 0.0 W/m2 CLR
06:50 -13.8 °C -15.6 °C 34591.4 hPa Calm     80 % 0 mm 0.0 W/m2 CLR
06:55 -13.9 °C -15.6 °C 34591.4 hPa Calm     81 % 0 mm 0.0 W/m2 CLR
07:00 -13.9 °C -15.6 °C 34577.8 hPa Calm     81 % 0 mm 0.0 W/m2 CLR
07:05 -13.9 °C -15.7 °C 34591.4 hPa Calm     81 % 0 mm 0.0 W/m2 CLR
07:10 -13.9 °C -15.6 °C 34577.8 hPa Calm     81 % 0 mm 0.0 W/m2 CLR
07:15 -13.9 °C -15.6 °C 34591.4 hPa Calm     81 % 0 mm 0.0 W/m2 CLR
07:20 -13.9 °C -15.6 °C 34577.8 hPa Calm     81 % 0 mm 0.0 W/m2 CLR
07:25 -13.9 °C -15.6 °C 34577.8 hPa Calm     81 % 0 mm 0.0 W/m2 CLR
07:30 -13.9 °C -15.7 °C 34577.8 hPa Calm     81 % 0 mm 0.0 W/m2 CLR
07:35 -13.9 °C -15.7 °C 34577.8 hPa Calm     81 % 0 mm 0.0 W/m2 OVC
07:40 -13.9 °C -15.7 °C 34577.8 hPa Calm     81 % 0 mm 0.0 W/m2 OVC
07:45 -13.9 °C -15.6 °C 34591.4 hPa Calm     82 % 0 mm 0.0 W/m2 OVC
07:50 -14 °C -15.6 °C 34591.4 hPa Calm     82 % 0 mm 5.0 W/m2 OVC
07:55 -14.1 °C -15.6 °C 34591.4 hPa Calm     82 % 0 mm 9.0 W/m2 BKN
08:01 -14.1 °C -15.6 °C 34591.4 hPa Calm     83 % 0 mm 12.0 W/m2 BKN
08:06 -14.1 °C -15.6 °C 34591.4 hPa Calm     83 % 0 mm 18.0 W/m2 BKN
08:11 -14.1 °C -15.6 °C 34591.4 hPa Calm     83 % 0 mm 21.0 W/m2 BKN
08:16 -14.1 °C -15.6 °C 34591.4 hPa Calm     83 % 0 mm 26.0 W/m2 BKN
08:21 -14.1 °C -15.5 °C 34591.4 hPa Calm     83 % 0 mm 32.0 W/m2 BKN
08:26 -14 °C -15.4 °C 34601.5 hPa Calm     83 % 0 mm 37.0 W/m2 BKN
08:31 -13.9 °C -15.4 °C 34591.4 hPa Calm     83 % 0 mm 44.0 W/m2 BKN
08:36 -13.9 °C -15.4 °C 34591.4 hPa Calm     83 % 0 mm 51.0 W/m2 SCT
08:41 -13.8 °C -15.3 °C 34601.5 hPa Calm     83 % 0 mm 56.0 W/m2 SCT
08:46 -13.8 °C -15.3 °C 34601.5 hPa Calm     83 % 0 mm 62.0 W/m2 SCT
08:51 -13.7 °C -15.2 °C 34601.5 hPa Calm     83 % 0 mm 67.0 W/m2 SCT
08:56 -13.7 °C -15.2 °C 34601.5 hPa Calm     83 % 0 mm 70.0 W/m2 FEW
08:57 -13.7 °C -15.2 °C 34601.5 hPa Calm     83 % 0 mm 72.0 W/m2 FEW
09:02 -13.7 °C -15.2 °C 34601.5 hPa Calm     83 % 0 mm 76.0 W/m2 FEW
09:07 -13.6 °C -15.1 °C 34601.5 hPa Calm     83 % 0 mm 100.0 W/m2 FEW
09:12 -13.6 °C -15.1 °C 34601.5 hPa Calm     83 % 0 mm 105.0 W/m2 CLR
09:17 -13.4 °C -14.9 °C 34601.5 hPa Calm     83 % 0 mm 216.0 W/m2 CLR
09:22 -13.2 °C -14.8 °C 34601.5 hPa Calm     83 % 0 mm 236.0 W/m2 CLR
09:27 -13 °C -14.6 °C 34601.5 hPa Calm     82 % 0 mm 257.0 W/m2 CLR
09:32 -12.7 °C -14.6 °C 34601.5 hPa Calm     80 % 0 mm 357.0 W/m2 CLR
09:37 -12.4 °C -14.3 °C 34601.5 hPa Calm     79 % 0 mm 330.0 W/m2 CLR
09:42 -12.2 °C -14.5 °C 34601.5 hPa Calm     76 % 0 mm 200.0 W/m2 CLR
09:47 -12.1 °C -14.5 °C 34601.5 hPa Calm     74 % 0 mm 188.0 W/m2 CLR
09:52 -11.9 °C -14.4 °C 34601.5 hPa Calm     74 % 0 mm 190.0 W/m2 CLR
09:57 -11.8 °C -14.4 °C 34601.5 hPa Calm     73 % 0 mm 193.0 W/m2 CLR
10:02 -11.8 °C -14.6 °C 34601.5 hPa Calm     71 % 0 mm 174.0 W/m2 CLR
10:07 -11.7 °C -14.6 °C 34601.5 hPa Calm     70 % 0 mm 153.0 W/m2 CLR
10:12 -11.6 °C -14.6 °C 34601.5 hPa Calm     70 % 0 mm 146.0 W/m2 CLR
10:17 -11.5 °C -14.4 °C 34601.5 hPa Calm     70 % 0 mm 146.0 W/m2 CLR
10:22 -11.4 °C -14.5 °C 34601.5 hPa Calm     69 % 0 mm 156.0 W/m2 CLR
10:27 -11.3 °C -14.4 °C 34601.5 hPa Calm     69 % 0 mm 183.0 W/m2 CLR
10:32 -11.2 °C -14.3 °C 34601.5 hPa Calm     68 % 0 mm 206.0 W/m2 CLR
10:37 -11.1 °C -14.1 °C 34601.5 hPa Calm     69 % 0 mm 211.0 W/m2 CLR
10:42 -10.9 °C -14.2 °C 34601.5 hPa Calm     67 % 0 mm 193.0 W/m2 CLR
10:47 -10.8 °C -14.2 °C 34601.5 hPa Calm     66 % 0 mm 190.0 W/m2 CLR
10:52 -10.7 °C -14.3 °C 34601.5 hPa Calm     65 % 0 mm 193.0 W/m2 CLR
10:57 -10.7 °C -14.5 °C 34601.5 hPa Calm     63 % 0 mm 276.0 W/m2 CLR
11:02 -10.6 °C -14.5 °C 34601.5 hPa Calm     62 % 0 mm 343.0 W/m2 CLR
11:07 -10.4 °C -14.3 °C 34601.5 hPa Calm     63 % 0 mm 325.0 W/m2 CLR
11:12 -10.2 °C -14.1 °C 34601.5 hPa Calm     63 % 0 mm 589.0 W/m2 CLR
11:17 -9.9 °C -14.1 °C 34591.4 hPa Calm     60 % 0 mm 575.0 W/m2 CLR
11:22 -9.7 °C -13.8 °C 34591.4 hPa Calm     61 % 0 mm 587.0 W/m2 CLR
11:28 -9.5 °C -13.5 °C 34591.4 hPa Calm     62 % 0 mm 599.0 W/m2 CLR
11:33 -9.3 °C -13.4 °C 34577.8 hPa Calm     61 % 0 mm 605.0 W/m2 CLR
11:38 -9.1 °C -13.3 °C 34577.8 hPa Calm     60 % 0 mm 654.0 W/m2 CLR
11:43 -8.8 °C -13.3 °C 34567.7 hPa Calm     59 % 0 mm 589.0 W/m2 CLR
11:48 -8.7 °C -13.4 °C 34567.7 hPa Calm     57 % 0 mm 399.0 W/m2 CLR
11:53 -8.6 °C -13.3 °C 34554.1 hPa Calm     57 % 0 mm 533.0 W/m2 CLR
11:58 -8.4 °C -13.3 °C 34554.1 hPa Calm     56 % 0 mm 717.0 W/m2 CLR
12:03 -8.1 °C -13.2 °C 34554.1 hPa Calm     55 % 0 mm 571.0 W/m2 CLR
12:08 -7.9 °C -13.3 °C 34554.1 hPa ENE 15 km/h 15 km/h 53 % 0 mm 635.0 W/m2 CLR
12:13 -7.7 °C -13.4 °C 34554.1 hPa ESE 15 km/h 15 km/h 51 % 0 mm 705.0 W/m2 CLR
12:18 -7.7 °C -13.4 °C 34544 hPa Calm     51 % 0 mm 766.0 W/m2 CLR
12:23 -7.6 °C -13.3 °C 34544 hPa East 9 km/h 9 km/h 51 % 0 mm 529.0 W/m2 CLR
12:28 -7.6 °C -13.4 °C 34544 hPa East 5.1 km/h 5.1 km/h 50 % 0 mm 422.0 W/m2 CLR
12:33 -7.6 °C -13.3 °C 34544 hPa Calm     51 % 0 mm 359.0 W/m2 CLR
12:38 -7.4 °C -13.3 °C 34544 hPa Calm     50 % 0 mm 522.0 W/m2 CLR
12:43 -7.2 °C -13 °C 34533.8 hPa ENE 9 km/h 9 km/h 51 % 0 mm 826.0 W/m2 CLR
12:48 -7.1 °C -13.3 °C 34533.8 hPa SE 6 km/h 6 km/h 48 % 0 mm 738.0 W/m2 CLR
12:53 -6.9 °C -13.2 °C 34533.8 hPa ESE 11.9 km/h 11.9 km/h 48 % 0 mm 689.0 W/m2 CLR
12:58 -6.8 °C -12.9 °C 34520.3 hPa ENE 20.9 km/h 20.9 km/h 49 % 0 mm 835.0 W/m2 CLR
13:03 -6.6 °C -13.1 °C 34520.3 hPa NE 17.9 km/h 17.9 km/h 47 % 0 mm 821.0 W/m2 CLR
13:08 -6.5 °C -13.5 °C 34520.3 hPa ESE 17.9 km/h 17.9 km/h 44 % 0 mm 854.0 W/m2 CLR
13:13 -6.3 °C -13 °C 34510.1 hPa ENE 23.8 km/h 23.8 km/h 46 % 0 mm 814.0 W/m2 CLR
13:18 -6.2 °C -12.9 °C 34510.1 hPa NE 17.9 km/h 17.9 km/h 46 % 0 mm 670.0 W/m2 CLR
13:23 -6.1 °C -12.9 °C 34496.6 hPa ENE 23.8 km/h 23.8 km/h 45 % 0 mm 786.0 W/m2 CLR
13:28 -5.9 °C -13.1 °C 34496.6 hPa ENE 9 km/h 9 km/h 44 % 0 mm 814.0 W/m2 CLR
13:33 -5.8 °C -12.9 °C 34496.6 hPa ENE 20.9 km/h 20.9 km/h 44 % 0 mm 816.0 W/m2 CLR
13:38 -5.7 °C -13.2 °C 34496.6 hPa Calm     42 % 0 mm 814.0 W/m2 CLR
13:43 -5.7 °C -13 °C 34496.6 hPa ESE 15 km/h 15 km/h 43 % 0 mm 814.0 W/m2 CLR
13:48 -5.7 °C -12.9 °C 34486.4 hPa NE 11.9 km/h 11.9 km/h 43 % 0 mm 814.0 W/m2 CLR
13:53 -5.6 °C -12.7 °C 34486.4 hPa ENE 17.9 km/h 17.9 km/h 44 % 0 mm 823.0 W/m2 CLR
13:58 -5.5 °C -12.8 °C 34486.4 hPa NNE 9 km/h 9 km/h 43 % 0 mm 816.0 W/m2 CLR
14:03 -5.4 °C -12.9 °C 34486.4 hPa ENE 17.9 km/h 17.9 km/h 42 % 0 mm 824.0 W/m2 CLR
14:08 -5.4 °C -13.1 °C 34476.3 hPa ENE 15.6 km/h 15.6 km/h 41 % 0 mm 882.0 W/m2 CLR
14:13 -5.6 °C -13.1 °C 34476.3 hPa NE 23.8 km/h 23.8 km/h 42 % 0 mm 858.0 W/m2 CLR
14:18 -5.5 °C -12.8 °C 34462.7 hPa NE 23.3 km/h 23.3 km/h 43 % 0 mm 809.0 W/m2 CLR
14:23 -5.4 °C -12.9 °C 34462.7 hPa NE 28.5 km/h 28.5 km/h 42 % 0 mm 803.0 W/m2 CLR
14:28 -5.4 °C -12.7 °C 34462.7 hPa NE 20.8 km/h 20.8 km/h 43 % 0 mm 814.0 W/m2 CLR
14:33 -5.4 °C -12.8 °C 34452.6 hPa ENE 17.9 km/h 17.9 km/h 43 % 0 mm 838.0 W/m2 CLR
14:38 -5.4 °C -12.8 °C 34452.6 hPa NE 29.8 km/h 29.8 km/h 43 % 0 mm 816.0 W/m2 CLR
14:43 -5.4 °C -12.9 °C 34452.6 hPa ENE 26.9 km/h 26.9 km/h 42 % 0 mm 735.0 W/m2 CLR
14:48 -5.4 °C -12.9 °C 34452.6 hPa NE 26.9 km/h 26.9 km/h 42 % 0 mm 202.0 W/m2 CLR
14:53 -5.7 °C -12.9 °C 34452.6 hPa NNE 15.6 km/h 15.6 km/h 43 % 0 mm 605.0 W/m2 CLR
14:58 -5.7 °C -12.7 °C 34452.6 hPa NNE 6 km/h   44 % 0 mm 262.0 W/m2 CLR
15:03 -5.7 °C -12.9 °C 34452.6 hPa East 12.9 km/h 12.9 km/h 43 % 0 mm 269.0 W/m2 CLR
15:08 -5.9 °C -12.6 °C 34442.4 hPa ESE 20.9 km/h 20.9 km/h 46 % 0 mm 220.0 W/m2 CLR
15:13 -6 °C -12.6 °C 34442.4 hPa ESE 29.8 km/h 29.8 km/h 47 % 0 mm 543.0 W/m2 CLR
15:18 -6 °C -12.6 °C 34442.4 hPa East 17.9 km/h 17.9 km/h 47 % 0 mm 664.0 W/m2 CLR
15:23 -6.2 °C -12.3 °C 34428.8 hPa ENE 29.8 km/h 29.8 km/h 49 % 0 mm 320.0 W/m2 CLR
15:28 -6.2 °C -12.3 °C 34428.8 hPa ESE 29.8 km/h 29.8 km/h 49 % 0 mm 267.0 W/m2 CLR
15:33 -6 °C -12.2 °C 34418.7 hPa East 29.8 km/h 29.8 km/h 49 % 0 mm 812.0 W/m2 CLR
15:38 -6 °C -12.9 °C 34405.1 hPa ESE 20.9 km/h 20.9 km/h 45 % 0 mm 821.0 W/m2 CLR
15:43 -5.9 °C -12.6 °C 34405.1 hPa ENE 15 km/h 15 km/h 46 % 0 mm 874.0 W/m2 CLR
15:48 -5.7 °C -12.3 °C 34395 hPa East 12.9 km/h 12.9 km/h 47 % 0 mm 267.0 W/m2 CLR
15:53 -5.5 °C -12.4 °C 34395 hPa ESE 17.9 km/h 17.9 km/h 45 % 0 mm 429.0 W/m2 CLR
15:58 -5.6 °C -12.5 °C 34395 hPa ENE 20.9 km/h 20.9 km/h 45 % 0 mm 309.0 W/m2 CLR
16:03 -5.8 °C -12.6 °C 34384.8 hPa NNE 26.9 km/h 26.9 km/h 46 % 0 mm 130.0 W/m2 CLR
16:08 -5.9 °C -12.5 °C 34395 hPa ENE 20.9 km/h 20.9 km/h 47 % 0 mm 81.0 W/m2 CLR
16:13 -6.1 °C -12.4 °C 34395 hPa NE 20.9 km/h 20.9 km/h 48 % 0 mm 47.0 W/m2 FEW
16:18 -6.2 °C -12.2 °C 34395 hPa NNE 18.2 km/h 18.2 km/h 50 % 0 mm 16.0 W/m2 SCT
16:23 -6.5 °C -12.3 °C 34405.1 hPa North 50.7 km/h 50.7 km/h 51 % 0 mm 9.0 W/m2 BKN
16:28 -6.9 °C -12.2 °C 34418.7 hPa NNE 65.5 km/h 65.5 km/h 54 % 0 mm 7.0 W/m2 BKN
16:34 -7.1 °C -12.6 °C 34428.8 hPa ENE 51.8 km/h 51.8 km/h 53 % 0 mm 14.0 W/m2 BKN
16:39 -7.8 °C -11.8 °C 34428.8 hPa ENE 46.7 km/h 47.2 km/h 63 % 50.8 mm 56.0 W/m2 RA
16:44 -9.3 °C -12.2 °C 34384.8 hPa ENE 56.6 km/h 56.6 km/h 71 % 213.36 mm 98.0 W/m2 RA
16:49 -9.6 °C -11.6 °C 34405.1 hPa NE 50.7 km/h 50.7 km/h 79 % 218.44 mm 113.0 W/m2 RA
16:54 -9.4 °C -11.4 °C 34418.7 hPa NE 47.6 km/h 47.6 km/h 79 % 218.44 mm 258.0 W/m2 CLR
16:59 -9.1 °C -11.1 °C 34418.7 hPa ENE 15.6 km/h 15.6 km/h 79 % 218.44 mm 506.0 W/m2 CLR
17:00 -8.9 °C -11.2 °C 34418.7 hPa East 35.7 km/h 35.7 km/h 77 % 218.44 mm 489.0 W/m2 CLR
17:05 -8.6 °C -11.1 °C 34405.1 hPa East 9 km/h 9 km/h 75 % 218.44 mm 216.0 W/m2 CLR
17:10 -8.5 °C -11 °C 34418.7 hPa Calm     75 % 218.44 mm 162.0 W/m2 CLR
17:15 -8.5 °C -11.2 °C 34418.7 hPa Calm     73 % 218.44 mm 120.0 W/m2 CLR
17:20 -8.6 °C -11 °C 34405.1 hPa Calm     75 % 218.44 mm 86.0 W/m2 CLR
17:21 -8.6 °C -11 °C 34405.1 hPa Calm     75 % 218.44 mm 76.0 W/m2 CLR
17:26 -8.6 °C -11.2 °C 34418.7 hPa Calm     74 % 218.44 mm 40.0 W/m2 FEW
17:31 -8.7 °C -11.3 °C 34418.7 hPa ENE 15 km/h 15 km/h 74 % 218.44 mm 39.0 W/m2 SCT
17:36 -8.8 °C -11.2 °C 34405.1 hPa South 38.8 km/h 38.8 km/h 76 % 205.74 mm 63.0 W/m2 BKN
17:41 -8.9 °C -11.2 °C 34418.7 hPa SSE 44.1 km/h 44.1 km/h 77 % 12.7 mm 113.0 W/m2 SCT
17:46 -8.8 °C -11.1 °C 34405.1 hPa SE 62.6 km/h 62.6 km/h 77 % 0 mm 130.0 W/m2 CLR
17:51 -8.9 °C -11 °C 34384.8 hPa SSW 56.6 km/h 56.6 km/h 79 % 0 mm 156.0 W/m2 CLR
17:56 -9 °C -11.1 °C 34395 hPa SSE 50.7 km/h 50.7 km/h 78 % 0 mm 188.0 W/m2 CLR
18:01 -8.9 °C -10.9 °C 34405.1 hPa South 35.7 km/h 35.7 km/h 79 % 0 mm 272.0 W/m2 CLR
18:06 -8.9 °C -10.9 °C 34384.8 hPa SSE 50.7 km/h 50.7 km/h 79 % 0 mm 425.0 W/m2 CLR
18:11 -8.7 °C -11.1 °C 34384.8 hPa SE 59.5 km/h 59.5 km/h 76 % 0 mm 388.0 W/m2 CLR
18:16 -8.7 °C -10.9 °C 34384.8 hPa ESE 17.9 km/h 17.9 km/h 77 % 0 mm 355.0 W/m2 CLR
18:21 -8.6 °C -10.9 °C 34395 hPa SSE 17.9 km/h 17.9 km/h 77 % 0 mm 332.0 W/m2 CLR
18:26 -8.5 °C -11 °C 34395 hPa Calm     75 % 0 mm 44.0 W/m2 SCT
18:31 -8.5 °C -10.9 °C 34395 hPa South 15 km/h 15 km/h 75 % 0 mm 39.0 W/m2 BKN
18:36 -8.6 °C -11.1 °C 34405.1 hPa Calm     75 % 0 mm 30.0 W/m2 OVC
18:41 -8.7 °C -11 °C 34428.8 hPa SW 20.8 km/h 20.8 km/h 76 % 0 mm 14.0 W/m2 OVC
18:46 -8.7 °C -10.9 °C 34428.8 hPa SSW 17.9 km/h 17.9 km/h 77 % 0 mm 11.0 W/m2 OVC
18:51 -8.7 °C -10.9 °C 34428.8 hPa West 32.8 km/h 32.8 km/h 77 % 0 mm 14.0 W/m2 OVC
18:56 -8.7 °C -10.8 °C 34418.7 hPa Calm     78 % 0 mm 25.0 W/m2 OVC
19:01 -8.7 °C -10.9 °C 34405.1 hPa Calm     77 % 0 mm 25.0 W/m2 OVC
19:06 -8.7 °C -10.8 °C 34395 hPa SE 7.7 km/h 7.7 km/h 78 % 0 mm 37.0 W/m2 OVC
19:11 -8.8 °C -10.8 °C 34405.1 hPa South 9 km/h   79 % 0 mm 74.0 W/m2 OVC
19:16 -8.8 °C -10.8 °C 34395 hPa South 15 km/h 15 km/h 80 % 0 mm 79.0 W/m2 OVC
19:21 -8.9 °C -11.3 °C 34405.1 hPa South 11.9 km/h 11.9 km/h 75 % 0 mm 69.0 W/m2 OVC
19:26 -8.9 °C -11.5 °C 34395 hPa South 9 km/h   74 % 0 mm 47.0 W/m2 OVC
19:31 -9 °C -11.5 °C 34395 hPa Calm     75 % 0 mm 39.0 W/m2 OVC
19:36 -9.2 °C -11.8 °C 34405.1 hPa SW 9 km/h 9 km/h 74 % 0 mm 33.0 W/m2 OVC
19:41 -9.3 °C -11.8 °C 34405.1 hPa Calm     74 % 0 mm 65.0 W/m2 OVC
19:46 -9.3 °C -11.7 °C 34418.7 hPa Calm     75 % 0 mm 46.0 W/m2 OVC
19:51 -9.3 °C -11.9 °C 34418.7 hPa Calm     74 % 0 mm 26.0 W/m2 OVC
19:56 -9.4 °C -12.2 °C 34418.7 hPa Calm     72 % 0 mm 18.0 W/m2 OVC
20:01 -9.4 °C -12.2 °C 34418.7 hPa Calm     72 % 0 mm 16.0 W/m2 OVC
20:06 -9.4 °C -12.2 °C 34418.7 hPa Calm     72 % 0 mm 9.0 W/m2 OVC
20:11 -9.5 °C -12.3 °C 34418.7 hPa Calm     72 % 0 mm 7.0 W/m2 OVC
20:16 -9.6 °C -12.2 °C 34405.1 hPa Calm     73 % 0 mm 5.0 W/m2 OVC
20:21 -9.6 °C -12.4 °C 34418.7 hPa Calm     72 % 0 mm 0.0 W/m2 OVC
20:27 -9.7 °C -12.3 °C 34418.7 hPa Calm     73 % 0 mm 0.0 W/m2 OVC
20:32 -9.7 °C -12.3 °C 34418.7 hPa Calm     73 % 0 mm 0.0 W/m2 OVC
20:37 -9.7 °C -12.3 °C 34418.7 hPa Calm     74 % 0 mm 0.0 W/m2 CLR
20:42 -9.8 °C -12 °C 34418.7 hPa Calm     77 % 0 mm 0.0 W/m2 CLR
20:47 -9.9 °C -12 °C 34418.7 hPa Calm     78 % 0 mm 0.0 W/m2 CLR
20:52 -9.9 °C -12 °C 34418.7 hPa Calm     79 % 0 mm 0.0 W/m2 CLR
20:57 -10.1 °C -12.1 °C 34418.7 hPa Calm     79 % 0 mm 0.0 W/m2 CLR
21:02 -10.1 °C -12.1 °C 34428.8 hPa Calm     79 % 0 mm 0.0 W/m2 CLR
21:07 -10.2 °C -11.8 °C 34442.4 hPa ENE 2.6 km/h   82 % 0 mm 0.0 W/m2 CLR
21:12 -10.2 °C -11.8 °C 34428.8 hPa Calm     83 % 12.7 mm 0.0 W/m2 RA
21:17 -10.3 °C -11.8 °C 34418.7 hPa Calm     84 % 12.7 mm 0.0 W/m2
21:22 -10.3 °C -11.8 °C 34418.7 hPa Calm     84 % 12.7 mm 0.0 W/m2 CLR
21:27 -10.4 °C -11.8 °C 34428.8 hPa Calm     85 % 12.7 mm 0.0 W/m2 CLR
21:32 -10.4 °C -11.8 °C 34428.8 hPa Calm     85 % 12.7 mm 0.0 W/m2 CLR
21:37 -10.5 °C -11.8 °C 34428.8 hPa Calm     85 % 12.7 mm 0.0 W/m2 CLR
21:42 -10.6 °C -11.8 °C 34442.4 hPa Calm     86 % 12.7 mm 0.0 W/m2 CLR
21:47 -10.6 °C -11.9 °C 34428.8 hPa Calm     86 % 12.7 mm 0.0 W/m2 CLR
21:52 -10.7 °C -11.9 °C 34428.8 hPa Calm     86 % 12.7 mm 0.0 W/m2 RA
21:57 -10.7 °C -11.9 °C 34442.4 hPa Calm     86 % 12.7 mm 0.0 W/m2 CLR
22:02 -10.7 °C -11.8 °C 34442.4 hPa Calm     87 % 12.7 mm 0.0 W/m2 CLR
22:07 -10.7 °C -11.9 °C 34442.4 hPa Calm     87 % 12.7 mm 0.0 W/m2 CLR
22:12 -10.7 °C -11.8 °C 34428.8 hPa Calm     88 % 7.62 mm 0.0 W/m2 CLR
22:17 -10.7 °C -11.8 °C 34428.8 hPa Calm     88 % 7.62 mm 0.0 W/m2 CLR
22:22 -10.7 °C -11.7 °C 34442.4 hPa Calm     89 % 7.62 mm 0.0 W/m2 CLR
22:27 -10.6 °C -11.5 °C 34462.7 hPa WNW 26.9 km/h 26.9 km/h 90 % 7.62 mm 0.0 W/m2 CLR
22:32 -10.3 °C -11.2 °C 34476.3 hPa WSW 51.8 km/h 51.8 km/h 91 % 12.7 mm 0.0 W/m2 RA
22:37 -10.4 °C -11.6 °C 34476.3 hPa West 35.7 km/h 35.7 km/h 88 % 50.8 mm 0.0 W/m2 RA
22:42 -10.6 °C -11.8 °C 34462.7 hPa Calm     87 % 58.42 mm 0.0 W/m2 RA
22:47 -10.7 °C -12 °C 34462.7 hPa Calm     86 % 58.42 mm 0.0 W/m2 CLR
22:52 -10.7 °C -12.4 °C 34452.6 hPa Calm     82 % 50.8 mm 0.0 W/m2 CLR
22:57 -10.7 °C -12.3 °C 34462.7 hPa Calm     83 % 50.8 mm 0.0 W/m2 CLR
23:02 -10.9 °C -12.5 °C 34462.7 hPa Calm     83 % 50.8 mm 0.0 W/m2 CLR
23:07 -11 °C -12.3 °C 34462.7 hPa Calm     85 % 50.8 mm 0.0 W/m2 CLR
23:12 -10.8 °C -11.8 °C 34476.3 hPa NW 38.8 km/h 38.8 km/h 89 % 50.8 mm 0.0 W/m2 CLR
23:17 -10.7 °C -11.6 °C 34476.3 hPa NNW 20.9 km/h 20.9 km/h 90 % 50.8 mm 0.0 W/m2 CLR
23:22 -10.8 °C -11.7 °C 34462.7 hPa Calm     90 % 50.8 mm 0.0 W/m2 CLR
23:27 -10.8 °C -11.7 °C 34476.3 hPa Calm     90 % 50.8 mm 0.0 W/m2 CLR
23:32 -11.1 °C -12.1 °C 34476.3 hPa Calm     89 % 45.72 mm 0.0 W/m2 CLR
23:37 -11.2 °C -12.1 °C 34462.7 hPa Calm     90 % 7.62 mm 0.0 W/m2 CLR
23:42 -11.2 °C -12.1 °C 34462.7 hPa Calm     90 % 0 mm 0.0 W/m2 CLR
23:47 -11.2 °C -12.1 °C 34452.6 hPa Calm     91 % 0 mm 0.0 W/m2 CLR
23:52 -11.3 °C -12.1 °C 34462.7 hPa Calm     91 % 0 mm 0.0 W/m2 CLR
23:57 -11.3 °C -12.1 °C 34462.7 hPa Calm     91 % 0 mm 0.0 W/m2 CLR
Lo Temps de Massalio
Compliments of Weather Underground - 1.25 mb